Date,TemperatureHighF,TemperatureAvgF,TemperatureLowF,DewpointHighF,DewpointAvgF,DewpointLowF,HumidityHigh,HumidityAvg,HumidityLow,PressureMaxIn,PressureMinIn,WindSpeedMaxMPH,WindSpeedAvgMPH,GustSpeedMaxMPH,PrecipitationSumIn
2014-1-1,66,43,26,40,30,17,87,63,35,30.31,29.89,10,3,22,0.00
2014-1-2,38,26,18,19,15,11,82,65,41,30.57,30.32,8,2,21,0.00
2014-1-3,48,35,19,24,20,16,87,59,36,30.53,30.03,6,2,21,0.00
2014-1-4,67,46,34,43,32,-100,88,61,35,30.03,29.73,9,4,21,0.00
2014-1-5,34,24,13,27,14,0,82,65,51,30.68,29.87,11,6,21,0.00
2014-1-6,27,17,9,5,1,-3,66,50,28,30.84,30.63,7,2,16,0.00
2014-1-7,47,30,15,14,10,4,71,47,24,30.64,30.32,6,2,15,0.00
2014-1-8,38,35,29,36,28,11,96,79,45,30.32,30.16,8,2,14,0.04
2014-1-9,37,33,30,36,32,29,98,97,96,30.29,30.09,5,1,9,0.02
2014-1-10,66,49,33,58,44,30,99,86,43,30.07,29.65,7,2,20,0.22
2014-1-11,64,46,28,33,26,20,90,55,20,30.12,29.86,8,1,16,0.01
2014-1-12,73,58,41,49,35,27,72,45,23,29.99,29.72,10,4,26,0.00
2014-1-13,60,50,32,49,28,17,75,45,21,30.08,29.76,9,3,19,0.00
2014-1-14,58,42,27,33,22,15,83,49,28,30.41,30.02,12,3,23,0.00
2014-1-15,54,40,27,26,21,15,72,49,29,30.44,30.10,6,1,12,0.00
2014-1-16,63,48,31,31,20,6,78,39,12,30.24,30.03,12,3,22,0.00
2014-1-17,50,42,33,20,13,8,55,32,19,30.41,30.21,9,2,18,0.00
2014-1-18,65,48,30,29,21,-100,70,39,21,30.24,30.05,9,2,17,0.00
2014-1-19,65,46,26,27,24,20,82,46,19,30.33,30.06,5,1,12,0.00
2014-1-20,67,52,37,35,28,22,68,41,24,30.30,29.90,12,3,21,0.00
2014-1-21,45,35,27,23,12,4,61,40,25,30.52,30.22,13,4,22,0.00
2014-1-22,50,36,24,22,18,14,79,50,29,30.31,30.15,8,3,17,0.00
2014-1-23,38,26,18,20,3,-8,55,38,25,30.89,30.32,13,8,26,0.00
2014-1-24,41,25,7,7,0,-5,72,38,19,30.88,30.26,6,2,12,0.00
2014-1-25,68,45,26,34,21,-100,67,41,27,30.27,29.99,5,1,11,0.00
2014-1-26,72,52,35,34,30,27,81,50,19,29.99,29.67,8,1,16,0.00
2014-1-27,53,30,19,30,3,-7,59,32,22,30.47,29.88,17,9,36,0.00
2014-1-28,32,21,14,10,2,-5,71,44,25,30.63,30.48,11,4,19,0.00
2014-1-29,46,26,9,15,8,3,85,52,20,30.53,30.21,7,2,15,0.00
2014-1-30,58,42,30,41,26,12,81,54,43,30.20,29.83,9,4,24,0.00
2014-1-31,68,51,39,51,43,33,97,75,42,29.88,29.78,6,2,14,0.00
2014-2-1,43,36,31,35,28,-100,90,77,57,30.16,29.80,11,3,21,0.00
2014-2-2,31,27,23,25,22,18,93,83,75,30.37,30.14,14,5,25,0.00
2014-2-3,35,28,21,29,22,15,91,78,69,30.40,30.11,5,1,11,0.10
2014-2-4,36,33,31,35,31,25,97,92,82,30.22,29.93,7,1,18,0.27
2014-2-5,31,20,12,26,13,5,82,74,68,30.67,30.21,11,6,22,0.02
2014-2-6,19,15,11,11,8,3,79,72,68,30.71,30.53,9,3,16,0.00
2014-2-7,27,21,17,24,16,10,92,80,72,30.54,30.29,3,1,8,0.00
2014-2-8,37,31,27,33,29,24,97,92,85,30.30,30.09,4,1,13,0.10
2014-2-9,34,32,30,33,31,29,98,96,93,30.27,30.13,9,4,17,0.01
2014-2-10,31,25,23,29,24,20,95,93,82,30.42,30.27,9,5,20,0.01
2014-2-11,29,25,20,25,20,15,85,81,75,30.47,30.32,8,3,16,0.00
2014-2-12,51,36,27,30,27,24,91,71,44,30.33,30.10,4,1,9,0.00
2014-2-13,68,42,22,37,30,20,94,68,29,30.11,29.89,5,1,10,0.00
2014-2-14,64,51,36,39,32,25,91,54,24,30.15,29.74,13,4,24,0.00
2014-2-15,66,50,30,33,28,-100,82,47,25,30.16,29.99,7,2,16,0.00
2014-2-16,69,52,39,56,43,30,86,71,60,30.10,29.85,5,2,13,0.00
2014-2-17,67,58,39,56,37,20,97,54,18,30.18,29.83,12,4,22,0.00
2014-2-18,78,52,28,49,36,24,88,60,27,30.15,29.82,6,2,14,0.00
2014-2-19,64,58,50,60,52,35,97,82,52,29.93,29.59,7,3,22,0.00
2014-2-20,65,57,38,61,41,19,88,58,25,30.13,29.53,11,5,23,0.00
2014-2-21,66,47,25,27,22,16,84,44,16,30.20,30.00,8,2,15,0.00
2014-2-22,73,56,41,45,34,-100,73,47,28,30.03,29.81,8,2,17,0.00
2014-2-23,58,50,43,50,38,25,98,66,38,30.21,29.83,9,4,17,0.00
2014-2-24,45,41,33,38,30,23,77,65,49,30.26,30.11,7,3,15,0.00
2014-2-25,49,44,38,38,29,20,83,56,39,30.29,30.14,11,5,23,0.00
2014-2-26,38,29,21,20,13,9,75,52,34,30.45,30.22,15,6,24,0.00
2014-2-27,55,36,14,27,18,11,87,54,25,30.24,29.90,4,1,10,0.00
2014-2-28,73,52,39,45,37,27,91,58,32,29.91,29.70,7,3,17,0.00
2014-3-1,62,49,37,52,44,-100,98,89,68,30.07,29.91,10,4,20,0.00
2014-3-2,34,18,13,30,15,8,93,86,79,30.50,30.09,13,8,25,0.00
2014-3-3,26,16,7,15,8,2,81,71,57,30.61,30.41,10,4,19,0.00
2014-3-4,49,32,19,29,21,13,83,65,42,30.41,30.09,4,1,10,0.01
2014-3-5,53,39,29,36,30,26,92,72,44,30.28,30.09,7,2,17,0.15
2014-3-6,53,40,33,37,34,30,92,80,51,30.32,30.08,6,1,12,0.01
2014-3-7,65,48,32,41,37,30,96,69,37,30.07,29.83,7,2,22,0.00
2014-3-8,50,41,33,44,34,-100,87,80,67,30.38,29.88,10,4,21,0.00
2014-3-9,64,47,34,39,34,29,84,63,40,30.42,30.21,5,2,9,0.00
2014-3-10,77,56,35,44,36,31,95,56,20,30.21,29.84,6,1,13,0.00
2014-3-11,84,65,51,55,46,32,92,58,16,29.85,29.47,13,4,27,0.00
2014-3-12,58,48,37,35,26,19,66,45,22,30.33,29.86,14,7,33,0.00
2014-3-13,68,50,26,27,24,20,86,43,17,30.35,30.06,6,2,14,0.00
2014-3-14,73,58,44,48,39,27,72,50,36,30.06,29.94,7,2,16,0.00
2014-3-15,67,56,49,59,51,-100,97,88,75,29.99,29.64,13,2,27,1.70
2014-3-16,53,42,37,52,37,30,97,81,64,30.15,29.79,15,8,31,1.04
2014-3-17,60,43,27,34,26,-100,89,56,30,30.15,29.75,5,2,13,0.01
2014-3-18,81,64,47,35,31,24,53,33,15,29.91,29.55,12,5,23,0.00
2014-3-19,61,48,36,33,29,22,75,50,23,30.25,29.93,12,4,23,0.00
2014-3-20,72,53,29,35,28,-100,90,49,19,30.26,29.99,6,2,13,0.00
2014-3-21,79,64,50,55,43,-100,60,49,35,30.00,29.79,8,3,19,0.00
2014-3-22,66,53,50,40,33,-100,65,49,30,30.19,29.96,12,7,24,0.00
2014-3-23,53,46,37,33,22,16,53,40,29,30.47,30.19,14,6,24,0.00
2014-3-24,66,48,29,36,30,22,83,53,27,30.32,30.09,15,2,27,0.00
2014-3-25,60,47,35,29,27,25,68,47,27,30.45,30.26,12,3,24,0.00
2014-3-26,56,44,39,50,36,28,90,73,55,30.25,29.87,6,2,17,0.32
2014-3-27,82,65,56,62,50,39,93,65,23,29.87,29.65,9,5,24,0.02
2014-3-28,62,57,50,52,43,38,72,59,50,30.13,29.74,10,5,21,0.00
2014-3-29,49,43,37,38,36,34,88,77,65,30.30,30.12,3,1,9,0.00